createdAt,value
2019-01-09T00:02:17.730Z,1.20
2019-01-09T00:06:34.128Z,1.20
2019-01-09T00:10:50.568Z,1.20
2019-01-09T00:15:07.247Z,1.20
2019-01-09T00:19:23.967Z,1.20
2019-01-09T00:23:40.528Z,1.10
2019-01-09T00:27:56.923Z,1.10
2019-01-09T00:32:13.614Z,1.00
2019-01-09T00:36:30.009Z,0.90
2019-01-09T00:40:46.444Z,0.90
2019-01-09T00:45:05.443Z,0.90
2019-01-09T00:49:23.982Z,0.80
2019-01-09T00:53:40.376Z,0.80
2019-01-09T00:57:56.803Z,0.80
2019-01-09T01:02:39.749Z,0.80
2019-01-09T01:07:19.809Z,0.80
2019-01-09T01:11:52.300Z,0.80
2019-01-09T01:16:18.849Z,0.70
2019-01-09T01:20:38.963Z,0.60
2019-01-09T01:25:16.107Z,0.60
2019-01-09T01:29:42.098Z,0.60
2019-01-09T01:34:14.680Z,0.60
2019-01-09T01:38:37.776Z,0.50
2019-01-09T01:43:04.503Z,0.60
2019-01-09T01:47:25.939Z,0.60
2019-01-09T01:51:55.456Z,0.50
2019-01-09T01:56:27.568Z,0.50
2019-01-09T02:00:59.703Z,0.50
2019-01-09T02:05:28.946Z,0.50
2019-01-09T02:09:53.305Z,0.50
2019-01-09T02:14:25.729Z,0.50
2019-01-09T02:18:51.813Z,0.50
2019-01-09T02:23:18.484Z,0.50
2019-01-09T02:27:40.685Z,0.50
2019-01-09T02:32:09.860Z,0.50
2019-01-09T02:36:26.439Z,0.50
2019-01-09T02:40:45.706Z,0.50
2019-01-09T02:48:22.635Z,0.40
2019-01-09T02:49:45.621Z,0.40
2019-01-09T02:54:11.166Z,0.40
2019-01-09T02:59:01.703Z,0.40
2019-01-09T03:03:28.943Z,0.40
2019-01-09T03:08:01.766Z,0.40
2019-01-09T03:12:26.383Z,0.40
2019-01-09T03:18:16.494Z,0.40
2019-01-09T03:22:05.654Z,0.40
2019-01-09T03:27:38.690Z,0.40
2019-01-09T03:39:45.647Z,0.40
2019-01-09T03:41:34.437Z,0.40
2019-01-09T03:46:08.969Z,0.40
2019-01-09T03:51:10.512Z,0.40
2019-01-09T03:59:14.108Z,0.30
2019-01-09T04:05:51.920Z,0.40
2019-01-09T04:10:14.372Z,0.30
2019-01-09T04:14:33.709Z,0.30
2019-01-09T04:18:58.359Z,0.40
2019-01-09T04:32:49.959Z,0.30
2019-01-09T04:37:24.958Z,0.40
2019-01-09T04:41:55.491Z,0.30
2019-01-09T04:46:21.176Z,0.30
2019-01-09T04:55:56.966Z,0.30
2019-01-09T05:00:20.050Z,0.30
2019-01-09T05:05:04.412Z,0.30
2019-01-09T05:09:05.760Z,0.30
2019-01-09T05:14:01.243Z,0.30
2019-01-09T05:18:26.446Z,0.30
2019-01-09T05:22:55.752Z,0.30
2019-01-09T05:27:13.368Z,0.30
2019-01-09T05:31:30.543Z,0.30
2019-01-09T05:36:15.801Z,0.30
2019-01-09T05:40:38.154Z,0.30
2019-01-09T05:45:00.271Z,0.30
2019-01-09T05:49:25.310Z,0.30
2019-01-09T05:53:41.736Z,0.30
2019-01-09T05:58:03.292Z,0.30
2019-01-09T06:08:11.173Z,0.30
2019-01-09T06:17:26.917Z,0.30
2019-01-09T06:21:56.309Z,0.20
2019-01-09T06:31:41.085Z,0.30
2019-01-09T06:35:58.101Z,0.20
2019-01-09T06:40:30.338Z,0.20
2019-01-09T06:44:38.840Z,0.20
2019-01-09T06:48:58.360Z,0.20
2019-01-09T06:53:24.609Z,0.20
2019-01-09T06:57:42.480Z,0.20
2019-01-09T07:02:07.750Z,0.20
2019-01-09T07:06:31.922Z,0.20
2019-01-09T07:11:05.785Z,0.20
2019-01-09T07:15:39.117Z,0.20
2019-01-09T07:19:57.878Z,0.20
2019-01-09T07:24:43.815Z,0.20
2019-01-09T07:29:47.751Z,0.20
2019-01-09T07:34:09.326Z,0.20
2019-01-09T07:38:35.419Z,0.20
2019-01-09T07:42:53.996Z,0.20
2019-01-09T07:47:14.805Z,0.20
2019-01-09T07:51:44.723Z,0.20
2019-01-09T07:56:10.670Z,0.20
2019-01-09T08:00:33.977Z,0.20
2019-01-09T08:04:50.475Z,0.20
2019-01-09T08:09:14.487Z,0.20
2019-01-09T08:13:31.840Z,0.20
2019-01-09T08:17:50.747Z,0.30
2019-01-09T08:22:07.502Z,0.30
2019-01-09T08:26:23.946Z,0.30
2019-01-09T08:30:40.413Z,0.30
2019-01-09T08:34:56.831Z,0.40
2019-01-09T08:39:13.289Z,0.40
2019-01-09T08:43:30.060Z,0.40
2019-01-09T08:47:46.616Z,0.50
2019-01-09T08:52:03.394Z,0.50
2019-01-09T08:56:20.086Z,0.40
2019-01-09T09:00:36.535Z,0.50
2019-01-09T09:04:53.315Z,0.40
2019-01-09T09:09:10.066Z,0.40
2019-01-09T09:13:35.559Z,0.50
2019-01-09T09:17:52.264Z,0.50
2019-01-09T09:22:08.724Z,0.60
2019-01-09T09:26:25.139Z,0.50
2019-01-09T09:30:41.947Z,0.50
2019-01-09T09:34:58.364Z,0.50
2019-01-09T09:39:14.821Z,0.50
2019-01-09T09:43:31.223Z,0.50
2019-01-09T09:47:47.947Z,0.60
2019-01-09T09:52:04.651Z,0.60
2019-01-09T09:56:25.169Z,0.60
2019-01-09T10:00:41.620Z,0.70
2019-01-09T10:05:00.271Z,0.70
2019-01-09T10:09:20.026Z,0.70
2019-01-09T10:13:46.746Z,0.80
2019-01-09T10:18:05.169Z,0.80
2019-01-09T10:22:54.234Z,0.80
2019-01-09T10:27:18.426Z,0.80
2019-01-09T10:32:10.497Z,0.90
2019-01-09T10:36:37.700Z,0.90
2019-01-09T10:41:31.313Z,0.90
2019-01-09T12:37:51.089Z,0.80
2019-01-09T12:57:30.396Z,0.60
2019-01-09T13:43:31.850Z,0.50
2019-01-09T13:47:48.278Z,0.50
2019-01-09T13:52:04.993Z,0.50
2019-01-09T13:56:21.433Z,0.50
2019-01-09T14:00:37.847Z,0.50
2019-01-09T14:04:54.294Z,0.50
2019-01-09T14:09:10.733Z,0.50
2019-01-09T14:13:27.182Z,0.50
2019-01-09T14:17:43.575Z,0.40
2019-01-09T14:22:00.010Z,0.40
2019-01-09T14:26:16.449Z,0.40
2019-01-09T14:30:32.889Z,0.40
2019-01-09T14:34:49.262Z,0.40
2019-01-09T14:39:05.976Z,0.40
2019-01-09T14:43:22.414Z,0.30
2019-01-09T14:47:38.918Z,0.30
2019-01-09T14:51:55.362Z,0.30
2019-01-09T14:56:11.787Z,0.30
2019-01-09T15:00:28.329Z,0.30
2019-01-09T15:04:45.193Z,0.30
2019-01-09T15:09:01.715Z,0.20
2019-01-09T15:13:18.271Z,0.20
2019-01-09T15:17:34.692Z,0.20
2019-01-09T15:21:51.163Z,0.20
2019-01-09T15:26:07.591Z,0.20
2019-01-09T15:30:26.028Z,0.20
2019-01-09T15:34:42.423Z,0.20
2019-01-09T15:38:58.844Z,0.20
2019-01-09T15:43:15.277Z,0.20
2019-01-09T15:47:31.690Z,0.20
2019-01-09T15:51:48.159Z,0.20
2019-01-09T15:56:04.584Z,0.20
2019-01-09T16:00:36.026Z,0.20
2019-01-09T16:04:52.454Z,0.20
2019-01-09T16:09:08.873Z,0.20
2019-01-09T16:13:25.817Z,0.20
2019-01-09T16:17:42.309Z,0.20
2019-01-09T16:22:03.021Z,0.20
2019-01-09T16:26:19.987Z,0.20
2019-01-09T16:30:42.844Z,0.20
2019-01-09T16:34:59.283Z,0.20
2019-01-09T16:39:17.428Z,0.20
2019-01-09T16:43:33.936Z,0.20
2019-01-09T16:47:50.675Z,0.20
2019-01-09T16:52:07.440Z,0.20
2019-01-09T16:56:24.132Z,0.20
2019-01-09T17:00:42.068Z,0.20
2019-01-09T17:04:58.527Z,0.20
2019-01-09T17:09:14.982Z,0.20
2019-01-09T17:13:31.434Z,0.20
2019-01-09T17:17:47.888Z,0.20
2019-01-09T17:22:04.616Z,0.20
2019-01-09T17:26:21.042Z,0.20
2019-01-09T17:30:37.482Z,0.20
2019-01-09T17:34:53.877Z,0.20
2019-01-09T17:39:10.613Z,0.20
2019-01-09T17:43:27.599Z,0.20
2019-01-09T17:47:44.035Z,0.20
2019-01-09T17:52:00.471Z,0.20
2019-01-09T17:56:16.960Z,0.20
2019-01-09T18:00:36.303Z,0.20
2019-01-09T18:04:52.750Z,0.20
2019-01-09T18:09:09.460Z,0.20
2019-01-09T18:13:25.909Z,0.20
2019-01-09T18:17:42.323Z,0.20
2019-01-09T18:21:58.860Z,0.20
2019-01-09T18:26:15.343Z,0.20
2019-01-09T18:30:41.661Z,0.20
2019-01-09T18:34:58.313Z,0.20
2019-01-09T18:39:18.577Z,0.20
2019-01-09T18:43:56.974Z,0.20
2019-01-09T18:48:33.132Z,0.20
2019-01-09T18:52:59.529Z,0.20
2019-01-09T18:57:15.996Z,0.20
2019-01-09T19:01:32.448Z,0.20
2019-01-09T19:05:48.928Z,0.20
2019-01-09T19:10:14.833Z,0.20
2019-01-09T19:14:31.592Z,0.20
2019-01-09T19:18:48.295Z,0.20
2019-01-09T19:23:05.558Z,0.20
2019-01-09T19:27:22.385Z,0.20
2019-01-09T19:31:38.794Z,0.20
2019-01-09T19:35:55.536Z,0.20
2019-01-09T19:40:11.969Z,0.20
2019-01-09T19:44:28.713Z,0.20
2019-01-09T19:48:45.154Z,0.20
2019-01-09T19:53:01.852Z,0.20
2019-01-09T19:57:18.624Z,0.20
2019-01-09T20:01:36.597Z,0.20
2019-01-09T20:05:53.379Z,0.20
2019-01-09T20:10:13.464Z,0.20
2019-01-09T20:14:30.693Z,0.10
2019-01-09T20:18:49.996Z,0.20
2019-01-09T20:23:08.552Z,0.20
2019-01-09T20:27:24.993Z,0.20
2019-01-09T20:31:41.716Z,0.20
2019-01-09T20:35:58.376Z,0.20
2019-01-09T20:40:15.428Z,0.20
2019-01-09T20:44:32.741Z,0.20
2019-01-09T20:48:49.240Z,0.20
2019-01-09T20:53:05.698Z,0.20
2019-01-09T20:57:23.669Z,0.20
2019-01-09T21:01:40.440Z,0.20
2019-01-09T21:05:56.950Z,0.20
2019-01-09T21:10:15.056Z,0.20
2019-01-09T21:14:34.474Z,0.20
2019-01-09T21:18:50.901Z,0.20
2019-01-09T21:23:07.521Z,0.20
2019-01-09T21:27:23.966Z,0.20
2019-01-09T21:31:40.373Z,0.20
2019-01-09T21:35:57.069Z,0.20
2019-01-09T21:40:27.156Z,0.20
2019-01-09T21:44:43.593Z,0.20
2019-01-09T21:49:00.066Z,0.20
2019-01-09T21:53:17.246Z,0.20
2019-01-09T21:57:34.006Z,0.20
2019-01-09T22:01:50.825Z,0.20
2019-01-09T22:06:07.370Z,0.20
2019-01-09T22:10:29.382Z,0.20
2019-01-09T22:14:45.921Z,0.20
2019-01-09T22:19:11.721Z,0.20
2019-01-09T22:23:20.796Z,0.20
2019-01-09T22:27:37.237Z,0.20
2019-01-09T22:31:54.074Z,0.20
2019-01-09T22:36:10.670Z,0.20
2019-01-09T22:40:27.189Z,0.30
2019-01-09T22:44:43.951Z,0.20
2019-01-09T22:49:00.622Z,0.20
2019-01-09T22:53:17.300Z,0.20
2019-01-09T22:57:33.814Z,0.20
2019-01-09T23:01:50.613Z,0.20
2019-01-09T23:06:07.292Z,0.20
2019-01-09T23:10:23.964Z,0.20
2019-01-09T23:14:40.492Z,0.30
2019-01-09T23:18:57.007Z,0.20
2019-01-09T23:23:13.517Z,0.20
2019-01-09T23:27:29.998Z,0.20
2019-01-09T23:31:46.534Z,0.20
2019-01-09T23:36:03.167Z,0.30
2019-01-09T23:40:19.883Z,0.20
2019-01-09T23:44:36.408Z,0.20
2019-01-09T23:48:52.905Z,0.20
2019-01-09T23:53:09.441Z,0.20
2019-01-09T23:57:25.937Z,0.20
